CST,Max TemperatureF,Mean TemperatureF,Min TemperatureF,Max Dew PointF,MeanDew PointF,Min DewpointF,Max Humidity, Mean Humidity, Min Humidity, Max Sea Level PressureIn, Mean Sea Level PressureIn, Min Sea Level PressureIn, Max VisibilityMiles, Mean VisibilityMiles, Min VisibilityMiles, Max Wind SpeedMPH, Mean Wind SpeedMPH, Max Gust SpeedMPH,PrecipitationIn, CloudCover, Events, WindDirDegrees
2011-11-1,80,58,37,37,31,25,70,41,18,30.18,30.12,30.03,10,10,10,17,8,24,0.00,0,,98
2011-11-2,77,58,39,37,27,19,70,37,12,30.38,30.17,30.04,10,9,3,59,12,82,0.11,1,,339
2011-11-3,59,46,32,21,19,16,60,40,22,30.47,30.38,30.27,10,10,9,21,13,25,0.00,0,,68
2011-11-4,73,54,35,28,21,12,45,32,19,30.26,30.13,30.00,10,10,10,17,6,23,0.00,1,,126
2011-11-5,75,56,37,30,24,19,52,30,13,30.00,29.92,29.84,10,10,7,29,8,40,0.00,0,,237
2011-11-6,71,50,30,34,29,23,75,44,17,30.11,30.04,30.00,10,10,10,18,7,24,0.00,0,,197
2011-11-7,73,54,35,34,27,21,75,39,14,30.04,29.98,29.89,10,10,10,25,8,34,0.00,0,,189
2011-11-8,57,47,35,25,16,3,53,31,15,30.25,30.13,30.00,10,10,10,26,14,32,0.00,0,,287
2011-11-9,53,44,35,27,22,10,70,46,28,30.47,30.36,30.26,10,10,10,24,13,30,0.00,1,,30
2011-11-10,53,38,23,21,17,3,80,45,22,30.55,30.44,30.34,10,10,10,9,5,,0.00,0,,79
2011-11-11,62,40,19,21,14,3,59,37,20,30.33,30.21,30.09,10,10,10,20,7,22,0.00,0,,216
2011-11-12,69,53,37,25,20,14,42,28,17,30.11,30.07,30.03,10,10,10,24,6,29,0.00,0,,252
2011-11-13,71,56,42,36,33,25,58,41,27,30.08,30.03,29.98,10,10,10,24,10,29,0.00,0,,232
2011-11-14,62,54,44,48,41,28,82,62,48,30.07,29.98,29.91,10,10,10,16,6,,0.00,3,,202
2011-11-15,64,48,33,45,34,27,100,64,32,30.05,29.99,29.94,10,10,10,25,9,31,0.00,0,,289
2011-11-16,66,48,30,36,29,21,81,49,24,30.27,30.12,30.03,10,10,10,23,8,26,0.00,0,,299
2011-11-17,60,45,30,30,28,21,81,50,29,30.39,30.29,30.18,10,10,10,15,10,23,0.00,0,,61
2011-11-18,73,50,28,39,26,18,80,48,13,30.16,30.07,29.98,10,10,10,17,5,25,0.00,0,,262
2011-11-19,71,52,32,34,24,18,81,40,13,30.05,30.01,29.98,10,10,10,20,7,29,0.00,0,,320
2011-11-20,71,55,39,34,22,14,40,30,20,30.18,30.11,30.06,10,10,8,17,7,23,0.00,0,,325
2011-11-21,73,58,44,48,30,19,77,40,14,30.19,30.08,29.98,10,10,6,32,10,34,0.00,0,,286
2011-11-22,64,52,41,34,28,21,70,43,24,30.33,30.25,30.18,10,10,10,18,11,23,0.00,0,,292
2011-11-23,66,46,26,25,18,10,64,37,16,30.40,30.33,30.28,10,10,10,12,6,16,0.00,0,,67
2011-11-24,73,52,30,30,23,10,60,37,20,30.29,30.23,30.14,10,10,10,13,7,16,0.00,0,,139
2011-11-25,66,52,37,45,35,21,76,58,40,30.11,30.02,29.94,10,10,10,32,10,38,0.00,2,,278
2011-11-26,51,38,24,36,22,-2,81,49,22,30.53,30.29,30.07,10,10,2,29,13,34,0.00,1,,350
2011-11-27,53,34,15,7,3,0,53,30,14,30.57,30.49,30.41,10,10,10,20,8,23,0.00,0,,298
2011-11-28,62,42,23,12,8,0,43,25,13,30.38,30.28,30.20,10,10,10,25,9,29,0.00,0,,236
2011-11-29,62,44,26,18,12,3,40,28,16,30.32,30.25,30.21,10,10,4,15,8,20,0.00,0,,41
2011-11-30,64,44,23,19,15,9,59,34,14,30.31,30.17,30.03,10,10,5,17,8,22,0.00,0,,159